EmailTwitter


Observations de surface / France / LFBO (07630)

Régions: Québec | Canada | États-Unis | Europe | France | UK | Ailleurs
Station
Affichage
Infos & localisation pour LFBO (07630) | Aide pour décoder les METARs

Observations prises le 2017-09-22 à 15H00 UTC à TOULOUSE/BLAGNAC, FR (LFBO)

Etat du ciel: partiellement nuageux.

Température: 21.0 Celsius

Point de rosée: 11.0 Celsius

Humidité relative: 53%

Vents: Nord-ouest à 11 km/h ou 6 noeuds.

Pression au niveau moyen de la mer: 102.10 kilopascals.

Visibilité horizontale: 6.21 milles terrestres ou 9.94 kilomètres.

Hauteur du plafond: 3353 mètres ( 11000 pieds ).

Observation METAR:

LFBO 221500Z AUTO 31006KT 270V340 9999 FEW024 BKN110 21/11 Q1021 NOSIG=